createdAt,value
2018-01-28T00:00:43.480Z,66.73
2018-01-28T00:03:11.797Z,65.13
2018-01-28T00:05:40.131Z,56.83
2018-01-28T00:08:08.464Z,59.03
2018-01-28T00:10:36.807Z,53.07
2018-01-28T00:13:05.138Z,54.33
2018-01-28T00:15:33.471Z,52.43
2018-01-28T00:18:01.784Z,58.47
2018-01-28T00:20:30.125Z,56.70
2018-01-28T00:22:58.575Z,46.03
2018-01-28T00:25:26.925Z,52.83
2018-01-28T00:27:55.251Z,49.00
2018-01-28T00:30:23.561Z,56.43
2018-01-28T00:32:51.888Z,52.10
2018-01-28T00:35:20.231Z,52.87
2018-01-28T00:37:48.561Z,45.13
2018-01-28T00:40:16.885Z,48.70
2018-01-28T00:42:45.239Z,54.13
2018-01-28T00:45:13.595Z,50.27
2018-01-28T00:47:41.941Z,38.27
2018-01-28T00:50:10.262Z,48.87
2018-01-28T00:52:38.586Z,36.87
2018-01-28T00:55:06.935Z,39.90
2018-01-28T00:57:35.252Z,52.03
2018-01-28T01:00:03.568Z,46.80
2018-01-28T01:02:31.936Z,40.70
2018-01-28T01:05:00.266Z,51.00
2018-01-28T01:07:28.614Z,54.30
2018-01-28T01:09:56.940Z,48.27
2018-01-28T01:12:25.277Z,50.80
2018-01-28T01:14:53.629Z,47.60
2018-01-28T01:17:21.983Z,46.53
2018-01-28T01:19:50.301Z,45.47
2018-01-28T01:22:18.628Z,38.90
2018-01-28T01:24:46.975Z,43.80
2018-01-28T01:27:15.303Z,45.10
2018-01-28T01:29:43.618Z,48.80
2018-01-28T01:32:11.956Z,51.73
2018-01-28T01:34:40.276Z,44.63
2018-01-28T01:37:09.448Z,41.17
2018-01-28T01:39:37.764Z,50.17
2018-01-28T01:42:06.178Z,47.83
2018-01-28T01:44:34.517Z,40.33
2018-01-28T01:47:02.827Z,43.27
2018-01-28T01:49:35.052Z,42.40
2018-01-28T01:52:03.393Z,35.93
2018-01-28T01:54:31.786Z,37.77
2018-01-28T01:57:00.100Z,39.90
2018-01-28T01:59:28.409Z,40.07
2018-01-28T02:01:56.715Z,44.13
2018-01-28T02:04:25.054Z,43.67
2018-01-28T02:06:53.368Z,44.10
2018-01-28T02:09:21.708Z,37.50
2018-01-28T02:11:50.107Z,44.57
2018-01-28T02:14:18.467Z,45.70
2018-01-28T02:16:46.883Z,44.53
2018-01-28T02:19:15.879Z,45.40
2018-01-28T02:21:44.241Z,37.77
2018-01-28T02:24:12.567Z,43.17
2018-01-28T02:26:40.904Z,44.47
2018-01-28T02:29:09.247Z,45.70
2018-01-28T02:31:37.592Z,37.83
2018-01-28T02:34:05.929Z,43.93
2018-01-28T02:36:34.226Z,39.20
2018-01-28T02:39:02.563Z,39.80
2018-01-28T02:41:30.911Z,38.87
2018-01-28T02:43:59.232Z,42.33
2018-01-28T02:46:27.597Z,38.20
2018-01-28T02:48:55.913Z,42.20
2018-01-28T02:51:24.262Z,48.20
2018-01-28T02:53:52.606Z,42.17
2018-01-28T02:56:20.955Z,47.77
2018-01-28T02:58:49.271Z,43.87
2018-01-28T03:01:17.595Z,39.63
2018-01-28T03:03:45.918Z,40.53
2018-01-28T03:06:14.251Z,42.20
2018-01-28T03:08:42.575Z,42.50
2018-01-28T03:11:10.928Z,31.53
2018-01-28T03:13:39.249Z,43.53
2018-01-28T03:16:07.681Z,31.50
2018-01-28T03:18:35.987Z,35.33
2018-01-28T03:21:04.362Z,35.07
2018-01-28T03:23:32.672Z,28.40
2018-01-28T03:26:00.992Z,34.93
2018-01-28T03:28:29.325Z,31.80
2018-01-28T03:30:57.648Z,34.07
2018-01-28T03:33:25.979Z,34.57
2018-01-28T03:35:54.299Z,31.20
2018-01-28T03:38:22.635Z,35.00
2018-01-28T03:40:50.954Z,36.03
2018-01-28T03:43:19.302Z,35.73
2018-01-28T03:45:48.316Z,34.87
2018-01-28T03:48:16.639Z,35.00
2018-01-28T03:50:44.977Z,36.30
2018-01-28T03:53:13.321Z,42.80
2018-01-28T03:55:41.662Z,34.60
2018-01-28T03:58:09.972Z,35.67
2018-01-28T04:00:38.312Z,33.90
2018-01-28T04:03:06.631Z,37.37
2018-01-28T04:05:34.970Z,32.97
2018-01-28T04:08:03.293Z,41.70
2018-01-28T04:10:31.623Z,30.97
2018-01-28T04:12:59.985Z,43.70
2018-01-28T04:15:28.292Z,33.20
2018-01-28T04:17:56.631Z,37.03
2018-01-28T04:20:24.946Z,36.97
2018-01-28T04:22:53.281Z,33.60
2018-01-28T04:25:21.612Z,38.03
2018-01-28T04:27:49.967Z,40.27
2018-01-28T04:30:18.296Z,32.63
2018-01-28T04:32:46.616Z,34.27
2018-01-28T04:35:14.941Z,43.87
2018-01-28T04:37:43.247Z,38.90
2018-01-28T04:40:11.583Z,37.47
2018-01-28T04:42:39.907Z,38.13
2018-01-28T04:45:08.255Z,38.60
2018-01-28T04:47:36.588Z,36.90
2018-01-28T04:50:04.902Z,41.27
2018-01-28T04:52:33.218Z,43.20
2018-01-28T04:55:01.527Z,36.80
2018-01-28T04:57:29.843Z,39.10
2018-01-28T04:59:58.193Z,36.93
2018-01-28T05:02:26.497Z,35.63
2018-01-28T05:04:54.828Z,42.77
2018-01-28T05:07:23.130Z,32.47
2018-01-28T05:09:51.479Z,48.83
2018-01-28T05:12:19.825Z,39.77
2018-01-28T05:14:48.143Z,38.73
2018-01-28T05:17:16.846Z,34.13
2018-01-28T05:19:45.107Z,40.47
2018-01-28T05:22:13.447Z,46.20
2018-01-28T05:24:41.763Z,36.00
2018-01-28T05:27:10.117Z,36.57
2018-01-28T05:29:38.427Z,39.20
2018-01-28T05:32:06.771Z,44.23
2018-01-28T05:34:35.071Z,35.13
2018-01-28T05:37:03.409Z,47.53
2018-01-28T05:39:31.749Z,46.50
2018-01-28T05:42:00.079Z,39.50
2018-01-28T05:44:28.399Z,35.57
2018-01-28T05:46:56.740Z,38.77
2018-01-28T05:49:25.090Z,43.83
2018-01-28T05:51:53.419Z,43.27
2018-01-28T05:54:22.727Z,37.67
2018-01-28T05:56:51.359Z,40.70
2018-01-28T05:59:19.683Z,37.33
2018-01-28T06:01:48.003Z,41.37
2018-01-28T06:04:16.323Z,39.60
2018-01-28T06:06:44.664Z,40.60
2018-01-28T06:09:12.979Z,37.63
2018-01-28T06:11:41.328Z,39.93
2018-01-28T06:14:09.631Z,40.57
2018-01-28T06:16:37.982Z,36.23
2018-01-28T06:19:06.303Z,40.17
2018-01-28T06:21:34.618Z,43.07
2018-01-28T06:24:02.947Z,44.93
2018-01-28T06:26:31.259Z,39.93
2018-01-28T06:28:59.583Z,37.83
2018-01-28T06:31:27.956Z,42.13
2018-01-28T06:33:56.268Z,39.83
2018-01-28T06:36:24.615Z,38.47
2018-01-28T06:38:52.944Z,43.27
2018-01-28T06:41:21.305Z,36.47
2018-01-28T06:43:49.636Z,41.53
2018-01-28T06:46:17.960Z,39.60
2018-01-28T06:48:46.288Z,33.23
2018-01-28T06:51:14.615Z,40.57
2018-01-28T06:53:42.948Z,42.60
2018-01-28T06:56:11.259Z,40.70
2018-01-28T06:58:39.598Z,41.67
2018-01-28T07:01:07.919Z,37.60
2018-01-28T07:03:36.251Z,42.17
2018-01-28T07:06:04.573Z,40.80
2018-01-28T07:08:32.906Z,36.00
2018-01-28T07:11:01.220Z,40.60
2018-01-28T07:13:30.899Z,45.50
2018-01-28T07:15:59.223Z,33.77
2018-01-28T07:18:27.591Z,36.93
2018-01-28T07:20:55.863Z,35.07
2018-01-28T07:23:26.568Z,38.40
2018-01-28T07:25:55.752Z,38.53
2018-01-28T07:28:24.067Z,40.87
2018-01-28T07:30:52.413Z,38.60
2018-01-28T07:33:20.735Z,36.90
2018-01-28T07:35:49.047Z,36.03
2018-01-28T07:38:17.386Z,36.53
2018-01-28T07:40:45.716Z,34.63
2018-01-28T07:43:14.079Z,35.33
2018-01-28T07:45:42.479Z,38.73
2018-01-28T07:48:10.785Z,39.27
2018-01-28T07:50:39.127Z,32.07
2018-01-28T07:53:07.514Z,27.77
2018-01-28T07:55:35.875Z,32.90
2018-01-28T07:58:04.235Z,36.57
2018-01-28T08:00:32.579Z,34.53
2018-01-28T08:03:00.921Z,33.80
2018-01-28T08:05:29.217Z,37.53
2018-01-28T08:07:57.577Z,34.83
2018-01-28T08:13:50.192Z,35.43
2018-01-28T08:16:18.528Z,35.83
2018-01-28T08:18:46.835Z,35.00
2018-01-28T08:21:15.180Z,34.60
2018-01-28T08:23:43.503Z,31.60
2018-01-28T08:26:11.852Z,28.83
2018-01-28T08:28:42.723Z,32.47
2018-01-28T08:31:11.061Z,30.63
2018-01-28T08:33:39.395Z,32.37
2018-01-28T08:36:08.443Z,31.13
2018-01-28T08:38:37.219Z,27.27
2018-01-28T08:41:05.563Z,30.63
2018-01-28T08:43:33.876Z,28.90
2018-01-28T08:46:02.934Z,30.70
2018-01-28T08:48:31.242Z,28.83
2018-01-28T08:50:59.592Z,28.23
2018-01-28T08:53:27.907Z,29.40
2018-01-28T08:55:56.247Z,33.00
2018-01-28T08:58:24.696Z,30.57
2018-01-28T09:00:53.033Z,29.30
2018-01-28T09:03:21.382Z,32.80
2018-01-28T09:05:49.699Z,29.03
2018-01-28T09:08:18.036Z,25.87
2018-01-28T09:10:46.358Z,26.40
2018-01-28T09:13:14.700Z,28.47
2018-01-28T09:15:43.112Z,25.30
2018-01-28T09:18:11.476Z,29.30
2018-01-28T09:20:39.826Z,28.40
2018-01-28T09:23:08.150Z,28.27
2018-01-28T09:25:36.481Z,27.63
2018-01-28T09:28:04.800Z,25.80
2018-01-28T09:30:33.139Z,21.97
2018-01-28T09:33:01.483Z,27.10
2018-01-28T09:35:29.797Z,23.63
2018-01-28T09:37:58.149Z,26.43
2018-01-28T09:40:50.380Z,24.50
2018-01-28T09:43:18.702Z,26.30
2018-01-28T09:45:47.098Z,28.57
2018-01-28T09:48:15.399Z,27.13
2018-01-28T09:50:43.761Z,33.27
2018-01-28T09:53:12.093Z,25.73
2018-01-28T09:55:40.424Z,24.63
2018-01-28T09:58:08.742Z,23.30
2018-01-28T10:00:37.083Z,24.40
2018-01-28T10:03:05.511Z,25.47
2018-01-28T10:05:34.004Z,19.17
2018-01-28T10:08:02.348Z,22.73
2018-01-28T10:10:30.660Z,26.40
2018-01-28T10:12:58.982Z,24.80
2018-01-28T10:15:27.350Z,26.60
2018-01-28T10:17:55.715Z,29.97
2018-01-28T10:20:24.107Z,22.60
2018-01-28T10:22:52.479Z,24.50
2018-01-28T10:25:20.835Z,22.90
2018-01-28T10:27:49.250Z,21.07
2018-01-28T10:30:17.605Z,20.90
2018-01-28T10:32:45.941Z,22.87
2018-01-28T10:35:14.269Z,19.67
2018-01-28T10:37:42.593Z,16.73
2018-01-28T10:40:11.150Z,18.83
2018-01-28T10:42:39.469Z,19.80
2018-01-28T10:45:07.801Z,17.67
2018-01-28T10:47:36.132Z,22.23
2018-01-28T10:50:06.281Z,15.90
2018-01-28T10:52:34.798Z,15.50
2018-01-28T10:55:03.332Z,21.60
2018-01-28T10:57:31.720Z,13.03
2018-01-28T11:00:00.046Z,13.30
2018-01-28T11:02:28.354Z,20.70
2018-01-28T11:04:56.691Z,12.70
2018-01-28T11:07:25.008Z,16.37
2018-01-28T11:09:53.325Z,12.30
2018-01-28T11:12:21.675Z,14.67
2018-01-28T11:14:50.077Z,14.47
2018-01-28T11:17:18.404Z,11.67
2018-01-28T11:19:46.718Z,11.10
2018-01-28T11:22:15.046Z,15.37
2018-01-28T11:24:43.372Z,11.13
2018-01-28T11:27:11.706Z,12.20
2018-01-28T11:29:40.023Z,9.93
2018-01-28T11:32:08.383Z,13.13
2018-01-28T11:34:36.727Z,17.50
2018-01-28T11:37:05.044Z,11.40
2018-01-28T11:39:33.436Z,13.57
2018-01-28T11:42:01.744Z,11.40
2018-01-28T11:44:30.091Z,20.17
2018-01-28T11:46:58.468Z,9.13
2018-01-28T11:49:26.796Z,13.70
2018-01-28T11:51:55.827Z,10.43
2018-01-28T11:54:24.183Z,11.33
2018-01-28T11:56:52.548Z,11.93
2018-01-28T11:59:20.980Z,13.30
2018-01-28T12:01:49.323Z,11.33
2018-01-28T12:04:18.237Z,14.37
2018-01-28T12:06:46.623Z,12.97
2018-01-28T12:09:14.976Z,9.40
2018-01-28T12:11:43.752Z,13.30
2018-01-28T12:14:12.064Z,12.10
2018-01-28T12:16:40.387Z,15.60
2018-01-28T12:19:08.735Z,10.57
2018-01-28T12:21:37.068Z,11.93
2018-01-28T12:24:05.392Z,14.10
2018-01-28T12:26:33.779Z,10.30
2018-01-28T12:29:02.072Z,11.10
2018-01-28T12:31:30.416Z,12.80
2018-01-28T12:33:58.737Z,9.20
2018-01-28T12:36:27.041Z,11.10
2018-01-28T12:39:05.079Z,12.20
2018-01-28T12:41:33.396Z,16.37
2018-01-28T12:44:01.720Z,10.67
2018-01-28T12:46:30.044Z,11.83
2018-01-28T12:48:58.389Z,12.10
2018-01-28T12:51:26.755Z,8.80
2018-01-28T12:53:55.106Z,10.47
2018-01-28T12:56:23.472Z,11.77
2018-01-28T12:58:51.797Z,8.07
2018-01-28T13:01:20.634Z,11.37
2018-01-28T13:03:49.891Z,11.40
2018-01-28T13:06:18.429Z,9.50
2018-01-28T13:08:47.181Z,10.87
2018-01-28T13:11:16.448Z,9.27
2018-01-28T13:13:45.744Z,14.43
2018-01-28T13:16:14.058Z,11.70
2018-01-28T13:18:42.381Z,7.70
2018-01-28T13:21:11.463Z,9.47
2018-01-28T13:23:39.854Z,7.33
2018-01-28T13:26:08.160Z,9.60
2018-01-28T13:28:36.495Z,10.47
2018-01-28T13:31:05.357Z,9.60
2018-01-28T13:33:33.655Z,12.30
2018-01-28T13:36:02.010Z,10.33
2018-01-28T13:38:30.314Z,7.37
2018-01-28T13:40:58.636Z,6.23
2018-01-28T13:43:27.008Z,7.60
2018-01-28T13:45:55.348Z,7.30
2018-01-28T13:48:23.668Z,6.57
2018-01-28T13:50:52.251Z,6.47
2018-01-28T13:53:21.296Z,8.07
2018-01-28T13:55:49.624Z,6.77
2018-01-28T13:58:17.956Z,5.70
2018-01-28T14:00:46.267Z,4.70
2018-01-28T14:03:14.583Z,4.43
2018-01-28T14:05:44.396Z,6.43
2018-01-28T14:08:13.236Z,8.60
2018-01-28T14:10:41.581Z,6.80
2018-01-28T14:13:09.875Z,5.40
2018-01-28T14:15:38.285Z,6.93
2018-01-28T14:18:07.873Z,4.20
2018-01-28T14:20:36.325Z,4.97
2018-01-28T14:23:04.781Z,4.37
2018-01-28T14:25:33.080Z,4.90
2018-01-28T14:28:01.434Z,3.60
2018-01-28T14:30:29.746Z,3.60
2018-01-28T14:32:58.091Z,3.70
2018-01-28T14:35:26.413Z,4.50
2018-01-28T14:37:54.795Z,12.13
2018-01-28T14:40:23.185Z,6.20
2018-01-28T14:42:51.569Z,3.60
2018-01-28T14:45:19.897Z,9.57
2018-01-28T14:47:48.208Z,3.53
2018-01-28T14:50:16.541Z,4.00
2018-01-28T14:52:46.373Z,3.47
2018-01-28T14:55:14.692Z,4.43
2018-01-28T14:57:43.008Z,6.67
2018-01-28T15:00:11.356Z,3.40
2018-01-28T15:02:39.680Z,3.10
2018-01-28T15:05:08.060Z,3.90
2018-01-28T15:07:37.403Z,10.70
2018-01-28T15:10:05.739Z,2.63
2018-01-28T15:12:34.045Z,6.20
2018-01-28T15:15:02.438Z,4.90
2018-01-28T15:17:30.697Z,2.80
2018-01-28T15:19:59.032Z,7.20
2018-01-28T15:22:27.503Z,9.80
2018-01-28T15:24:55.919Z,2.23
2018-01-28T15:27:24.228Z,9.17
2018-01-28T15:29:52.565Z,4.20
2018-01-28T15:32:20.886Z,4.40
2018-01-28T15:34:49.426Z,18.63
2018-01-28T15:37:17.730Z,3.63
2018-01-28T15:39:46.066Z,3.10
2018-01-28T15:42:14.375Z,3.23
2018-01-28T15:44:42.698Z,3.07
2018-01-28T15:47:11.088Z,2.70
2018-01-28T15:49:39.449Z,3.87
2018-01-28T15:52:07.807Z,3.10
2018-01-28T15:54:36.135Z,5.40
2018-01-28T15:57:04.498Z,4.03
2018-01-28T15:59:32.941Z,9.17
2018-01-28T16:02:01.550Z,6.03
2018-01-28T16:04:29.893Z,3.93
2018-01-28T16:06:58.284Z,3.83
2018-01-28T16:09:26.592Z,10.33
2018-01-28T16:11:54.912Z,2.80
2018-01-28T16:14:23.316Z,3.07
2018-01-28T16:16:51.808Z,7.90
2018-01-28T16:19:20.532Z,3.43
2018-01-28T16:21:49.080Z,3.10
2018-01-28T16:24:17.391Z,5.70
2018-01-28T16:26:45.729Z,4.20
2018-01-28T16:29:14.054Z,4.80
2018-01-28T16:31:42.436Z,4.60
2018-01-28T16:34:10.774Z,9.00
2018-01-28T16:36:39.087Z,3.90
2018-01-28T16:39:07.429Z,6.00
2018-01-28T16:41:35.783Z,4.67
2018-01-28T16:44:04.111Z,4.77
2018-01-28T16:46:32.422Z,3.67
2018-01-28T16:49:01.760Z,2.43
2018-01-28T16:51:30.175Z,4.00
2018-01-28T16:53:58.516Z,4.10
2018-01-28T16:56:26.860Z,3.03
2018-01-28T16:58:55.178Z,5.00
2018-01-28T17:01:23.505Z,4.10
2018-01-28T17:03:51.831Z,8.50
2018-01-28T17:06:20.232Z,3.80
2018-01-28T17:08:48.585Z,4.50
2018-01-28T17:11:17.107Z,3.40
2018-01-28T17:13:45.467Z,5.33
2018-01-28T17:16:13.801Z,4.50
2018-01-28T17:18:42.126Z,3.83
2018-01-28T17:21:10.444Z,4.87
2018-01-28T17:23:38.776Z,6.07
2018-01-28T17:26:07.103Z,6.43
2018-01-28T17:28:35.437Z,5.93
2018-01-28T17:31:03.783Z,7.87
2018-01-28T17:33:32.625Z,13.17
2018-01-28T17:36:00.978Z,7.73
2018-01-28T17:38:29.549Z,6.67
2018-01-28T17:40:57.948Z,8.20
2018-01-28T17:43:26.261Z,12.07
2018-01-28T17:45:54.593Z,7.07
2018-01-28T17:48:23.632Z,6.53
2018-01-28T17:50:52.932Z,3.97
2018-01-28T17:53:21.239Z,2.60
2018-01-28T17:55:49.552Z,3.40
2018-01-28T17:58:22.294Z,6.37
2018-01-28T18:00:50.664Z,4.33
2018-01-28T18:03:19.060Z,4.33
2018-01-28T18:05:47.465Z,7.43
2018-01-28T18:08:15.782Z,5.57
2018-01-28T18:10:44.089Z,5.97
2018-01-28T18:13:12.423Z,10.73
2018-01-28T18:15:40.732Z,4.73
2018-01-28T18:18:09.098Z,3.70
2018-01-28T18:20:37.411Z,7.00
2018-01-28T18:23:05.718Z,7.03
2018-01-28T18:25:34.511Z,3.07
2018-01-28T18:28:02.849Z,7.83
2018-01-28T18:30:32.267Z,5.23
2018-01-28T18:33:00.578Z,5.13
2018-01-28T18:35:28.917Z,4.40
2018-01-28T18:37:57.232Z,8.73
2018-01-28T18:40:25.563Z,7.43
2018-01-28T18:42:53.890Z,4.20
2018-01-28T18:45:22.244Z,5.50
2018-01-28T18:47:50.649Z,4.00
2018-01-28T18:50:18.943Z,5.87
2018-01-28T18:52:47.290Z,4.67
2018-01-28T18:55:15.596Z,5.63
2018-01-28T18:57:44.148Z,4.50
2018-01-28T19:00:12.480Z,3.37
2018-01-28T19:02:40.815Z,4.60
2018-01-28T19:05:09.149Z,2.60
2018-01-28T19:07:37.468Z,4.00
2018-01-28T19:10:05.813Z,7.23
2018-01-28T19:12:34.356Z,5.07
2018-01-28T19:15:02.678Z,3.03
2018-01-28T19:17:31.031Z,3.73
2018-01-28T19:19:59.365Z,5.10
2018-01-28T19:22:27.737Z,4.57
2018-01-28T19:24:56.058Z,5.33
2018-01-28T19:27:24.359Z,5.47
2018-01-28T19:29:52.711Z,3.70
2018-01-28T19:32:21.053Z,6.93
2018-01-28T19:34:49.564Z,4.53
2018-01-28T19:37:17.988Z,5.13
2018-01-28T19:39:46.338Z,8.53
2018-01-28T19:42:14.666Z,5.80
2018-01-28T19:44:42.981Z,5.63
2018-01-28T19:47:11.274Z,7.83
2018-01-28T19:49:39.595Z,4.87
2018-01-28T19:52:07.913Z,4.70
2018-01-28T19:54:36.223Z,5.10
2018-01-28T19:57:05.303Z,8.83
2018-01-28T19:59:34.611Z,5.53
2018-01-28T20:02:02.944Z,6.83
2018-01-28T20:04:31.252Z,9.00
2018-01-28T20:06:59.576Z,5.10
2018-01-28T20:09:27.872Z,6.03
2018-01-28T20:11:56.183Z,5.50
2018-01-28T20:14:24.510Z,6.00
2018-01-28T20:16:52.824Z,5.50
2018-01-28T20:19:21.181Z,8.40
2018-01-28T20:21:49.496Z,3.73
2018-01-28T20:24:17.806Z,5.97
2018-01-28T20:26:46.156Z,7.93
2018-01-28T20:29:14.450Z,4.90
2018-01-28T20:31:42.776Z,6.63
2018-01-28T20:34:11.087Z,4.87
2018-01-28T20:36:39.402Z,5.10
2018-01-28T20:39:08.076Z,7.20
2018-01-28T20:41:36.691Z,5.60
2018-01-28T20:44:04.973Z,4.23
2018-01-28T20:46:33.307Z,4.50
2018-01-28T20:49:01.650Z,5.37
2018-01-28T20:51:29.976Z,7.23
2018-01-28T20:53:58.408Z,8.17
2018-01-28T20:56:26.725Z,5.40
2018-01-28T20:58:55.052Z,6.23
2018-01-28T21:01:23.400Z,7.53
2018-01-28T21:03:51.754Z,6.57
2018-01-28T21:06:20.212Z,3.97
2018-01-28T21:08:48.520Z,5.93
2018-01-28T21:11:16.823Z,6.67
2018-01-28T21:13:45.910Z,5.50
2018-01-28T21:16:14.232Z,7.50
2018-01-28T21:18:42.538Z,5.47
2018-01-28T21:21:11.110Z,6.13
2018-01-28T21:23:39.472Z,5.30
2018-01-28T21:26:07.811Z,5.43
2018-01-28T21:28:36.120Z,5.50
2018-01-28T21:31:04.432Z,4.50
2018-01-28T21:33:32.761Z,6.70
2018-01-28T21:36:01.071Z,5.50
2018-01-28T21:38:29.393Z,4.53
2018-01-28T21:40:57.764Z,6.07
2018-01-28T21:43:26.115Z,9.33
2018-01-28T21:45:54.437Z,5.40
2018-01-28T21:48:22.791Z,10.20
2018-01-28T21:50:51.133Z,4.50
2018-01-28T21:53:19.462Z,5.17
2018-01-28T21:55:47.753Z,6.10
2018-01-28T21:58:16.063Z,5.30
2018-01-28T22:00:44.397Z,6.73
2018-01-28T22:03:12.709Z,8.90
2018-01-28T22:05:41.043Z,4.20
2018-01-28T22:08:09.340Z,4.60
2018-01-28T22:10:37.653Z,9.53
2018-01-28T22:13:05.969Z,4.83
2018-01-28T22:15:34.264Z,5.90
2018-01-28T22:18:03.557Z,6.50
2018-01-28T22:20:31.882Z,6.40
2018-01-28T22:23:00.201Z,6.93
2018-01-28T22:25:28.507Z,9.63
2018-01-28T22:27:56.820Z,5.83
2018-01-28T22:30:25.140Z,5.90
2018-01-28T22:32:53.486Z,7.00
2018-01-28T22:35:21.799Z,7.40
2018-01-28T22:37:50.118Z,6.20
2018-01-28T22:40:18.436Z,6.47
2018-01-28T22:42:46.751Z,7.83
2018-01-28T22:45:15.088Z,9.10
2018-01-28T22:47:43.395Z,4.50
2018-01-28T22:50:11.712Z,6.37
2018-01-28T22:52:40.045Z,5.27
2018-01-28T22:55:08.427Z,6.53
2018-01-28T22:57:36.744Z,4.90
2018-01-28T23:00:05.068Z,8.33
2018-01-28T23:02:33.385Z,7.00
2018-01-28T23:05:01.708Z,6.30
2018-01-28T23:07:30.020Z,5.27
2018-01-28T23:09:58.341Z,5.30
2018-01-28T23:12:26.649Z,3.90
2018-01-28T23:14:54.967Z,5.67
2018-01-28T23:17:23.375Z,5.83
2018-01-28T23:19:51.762Z,3.57
2018-01-28T23:22:20.064Z,6.00
2018-01-28T23:24:48.388Z,3.30
2018-01-28T23:27:16.711Z,6.20
2018-01-28T23:29:45.026Z,7.57
2018-01-28T23:32:13.348Z,3.83
2018-01-28T23:34:41.707Z,4.90
2018-01-28T23:37:10.000Z,5.43
2018-01-28T23:39:38.311Z,3.80
2018-01-28T23:42:06.615Z,3.57
2018-01-28T23:44:35.634Z,4.17
2018-01-28T23:47:03.950Z,5.90
2018-01-28T23:49:32.249Z,8.33
2018-01-28T23:52:00.577Z,4.30
2018-01-28T23:54:28.883Z,3.53
2018-01-28T23:56:57.192Z,4.70
2018-01-28T23:59:25.530Z,5.00
